sensor_id;sensor_type;location;lat;lon;timestamp;temperature;humidity
48007;DHT22;33771;48.180;11.400;2023-09-19T00:02:16;15.90;99.90
48007;DHT22;33771;48.180;11.400;2023-09-19T00:04:42;15.90;99.90
48007;DHT22;33771;48.180;11.400;2023-09-19T00:07:08;15.90;99.90
48007;DHT22;33771;48.180;11.400;2023-09-19T00:09:34;15.90;99.90
48007;DHT22;33771;48.180;11.400;2023-09-19T00:12:05;15.90;99.90
48007;DHT22;33771;48.180;11.400;2023-09-19T00:14:30;15.90;99.90
48007;DHT22;33771;48.180;11.400;2023-09-19T00:17:00;15.90;99.90
48007;DHT22;33771;48.180;11.400;2023-09-19T00:19:26;15.90;99.90
48007;DHT22;33771;48.180;11.400;2023-09-19T00:21:51;15.90;99.90
48007;DHT22;33771;48.180;11.400;2023-09-19T00:24:18;15.90;99.90
48007;DHT22;33771;48.180;11.400;2023-09-19T00:26:44;15.90;99.90
48007;DHT22;33771;48.180;11.400;2023-09-19T00:29:11;15.90;99.90
48007;DHT22;33771;48.180;11.400;2023-09-19T00:31:43;15.90;99.90
48007;DHT22;33771;48.180;11.400;2023-09-19T00:34:09;15.90;99.90
48007;DHT22;33771;48.180;11.400;2023-09-19T00:36:36;15.80;99.90
48007;DHT22;33771;48.180;11.400;2023-09-19T00:39:04;15.80;99.90
48007;DHT22;33771;48.180;11.400;2023-09-19T00:41:34;15.80;99.90
48007;DHT22;33771;48.180;11.400;2023-09-19T00:44:02;15.80;99.90
48007;DHT22;33771;48.180;11.400;2023-09-19T00:46:28;15.80;99.90
48007;DHT22;33771;48.180;11.400;2023-09-19T00:48:53;15.80;99.90
48007;DHT22;33771;48.180;11.400;2023-09-19T00:51:20;15.70;99.90
48007;DHT22;33771;48.180;11.400;2023-09-19T00:53:48;15.70;99.90
48007;DHT22;33771;48.180;11.400;2023-09-19T00:56:15;15.70;99.90
48007;DHT22;33771;48.180;11.400;2023-09-19T00:58:44;15.70;99.90
48007;DHT22;33771;48.180;11.400;2023-09-19T01:01:10;15.70;99.90
48007;DHT22;33771;48.180;11.400;2023-09-19T01:03:37;15.70;99.90
48007;DHT22;33771;48.180;11.400;2023-09-19T01:06:02;15.70;99.90
48007;DHT22;33771;48.180;11.400;2023-09-19T01:08:28;15.70;99.90
48007;DHT22;33771;48.180;11.400;2023-09-19T01:11:09;15.80;99.90
48007;DHT22;33771;48.180;11.400;2023-09-19T01:13:48;15.80;99.90
48007;DHT22;33771;48.180;11.400;2023-09-19T01:16:38;15.80;99.90
48007;DHT22;33771;48.180;11.400;2023-09-19T01:28:25;15.90;99.90
48007;DHT22;33771;48.180;11.400;2023-09-19T01:30:57;15.90;99.90
48007;DHT22;33771;48.180;11.400;2023-09-19T01:33:26;15.90;99.90
48007;DHT22;33771;48.180;11.400;2023-09-19T01:35:52;15.90;99.90
48007;DHT22;33771;48.180;11.400;2023-09-19T01:38:23;15.90;99.90
48007;DHT22;33771;48.180;11.400;2023-09-19T01:41:06;15.90;99.90
48007;DHT22;33771;48.180;11.400;2023-09-19T01:43:42;15.90;99.90
48007;DHT22;33771;48.180;11.400;2023-09-19T01:46:32;16.00;99.90
48007;DHT22;33771;48.180;11.400;2023-09-19T01:49:20;15.90;99.90
48007;DHT22;33771;48.180;11.400;2023-09-19T01:52:04;15.90;99.90
48007;DHT22;33771;48.180;11.400;2023-09-19T01:54:40;15.90;99.90
48007;DHT22;33771;48.180;11.400;2023-09-19T01:57:13;15.90;99.90
48007;DHT22;33771;48.180;11.400;2023-09-19T01:59:52;16.00;99.90
48007;DHT22;33771;48.180;11.400;2023-09-19T02:02:21;15.90;99.90
48007;DHT22;33771;48.180;11.400;2023-09-19T02:04:48;16.00;99.90
48007;DHT22;33771;48.180;11.400;2023-09-19T02:07:14;16.00;99.90
48007;DHT22;33771;48.180;11.400;2023-09-19T02:09:40;15.90;99.90
48007;DHT22;33771;48.180;11.400;2023-09-19T02:12:08;15.90;99.90
48007;DHT22;33771;48.180;11.400;2023-09-19T02:14:34;16.00;99.90
48007;DHT22;33771;48.180;11.400;2023-09-19T02:17:02;16.00;99.90
48007;DHT22;33771;48.180;11.400;2023-09-19T02:19:36;16.00;99.90
48007;DHT22;33771;48.180;11.400;2023-09-19T02:22:04;16.00;99.90
48007;DHT22;33771;48.180;11.400;2023-09-19T02:24:33;15.90;99.90
48007;DHT22;33771;48.180;11.400;2023-09-19T02:26:59;16.00;99.90
48007;DHT22;33771;48.180;11.400;2023-09-19T02:29:29;15.90;99.90
48007;DHT22;33771;48.180;11.400;2023-09-19T02:31:55;15.90;99.90
48007;DHT22;33771;48.180;11.400;2023-09-19T02:34:21;15.90;99.90
48007;DHT22;33771;48.180;11.400;2023-09-19T02:36:47;15.90;99.90
48007;DHT22;33771;48.180;11.400;2023-09-19T02:39:12;15.90;99.90
48007;DHT22;33771;48.180;11.400;2023-09-19T02:41:38;15.90;99.90
48007;DHT22;33771;48.180;11.400;2023-09-19T02:44:04;15.90;99.90
48007;DHT22;33771;48.180;11.400;2023-09-19T02:46:33;15.90;99.90
48007;DHT22;33771;48.180;11.400;2023-09-19T02:48:58;15.80;99.90
48007;DHT22;33771;48.180;11.400;2023-09-19T02:51:24;15.80;99.90
48007;DHT22;33771;48.180;11.400;2023-09-19T02:53:50;15.80;99.90
48007;DHT22;33771;48.180;11.400;2023-09-19T02:56:18;15.80;99.90
48007;DHT22;33771;48.180;11.400;2023-09-19T02:58:44;15.80;99.90
48007;DHT22;33771;48.180;11.400;2023-09-19T03:01:12;15.80;99.90
48007;DHT22;33771;48.180;11.400;2023-09-19T03:03:38;15.80;99.90
48007;DHT22;33771;48.180;11.400;2023-09-19T03:06:06;15.80;99.90
48007;DHT22;33771;48.180;11.400;2023-09-19T03:08:34;15.80;99.90
48007;DHT22;33771;48.180;11.400;2023-09-19T03:11:03;15.70;99.90
48007;DHT22;33771;48.180;11.400;2023-09-19T03:13:31;15.70;99.90
48007;DHT22;33771;48.180;11.400;2023-09-19T03:15:57;15.70;99.90
48007;DHT22;33771;48.180;11.400;2023-09-19T03:18:24;15.70;99.90
48007;DHT22;33771;48.180;11.400;2023-09-19T03:20:55;15.70;99.90
48007;DHT22;33771;48.180;11.400;2023-09-19T03:23:21;15.70;99.90
48007;DHT22;33771;48.180;11.400;2023-09-19T03:25:46;15.70;99.90
48007;DHT22;33771;48.180;11.400;2023-09-19T03:28:13;15.60;99.90
48007;DHT22;33771;48.180;11.400;2023-09-19T03:30:38;15.60;99.90
48007;DHT22;33771;48.180;11.400;2023-09-19T03:33:04;15.60;99.90
48007;DHT22;33771;48.180;11.400;2023-09-19T03:35:30;15.60;99.90
48007;DHT22;33771;48.180;11.400;2023-09-19T03:37:56;15.60;99.90
48007;DHT22;33771;48.180;11.400;2023-09-19T03:40:22;15.60;99.90
48007;DHT22;33771;48.180;11.400;2023-09-19T03:42:48;15.60;99.90
48007;DHT22;33771;48.180;11.400;2023-09-19T03:45:14;15.60;99.90
48007;DHT22;33771;48.180;11.400;2023-09-19T03:47:41;15.60;99.90
48007;DHT22;33771;48.180;11.400;2023-09-19T03:50:07;15.60;99.90
48007;DHT22;33771;48.180;11.400;2023-09-19T03:52:36;15.60;99.90
48007;DHT22;33771;48.180;11.400;2023-09-19T03:55:02;15.70;99.90
48007;DHT22;33771;48.180;11.400;2023-09-19T03:57:29;15.70;99.90
48007;DHT22;33771;48.180;11.400;2023-09-19T03:59:55;15.70;99.90
48007;DHT22;33771;48.180;11.400;2023-09-19T04:02:21;15.70;99.90
48007;DHT22;33771;48.180;11.400;2023-09-19T04:04:51;15.70;99.90
48007;DHT22;33771;48.180;11.400;2023-09-19T04:07:18;15.80;99.90
48007;DHT22;33771;48.180;11.400;2023-09-19T04:09:45;15.80;99.90
48007;DHT22;33771;48.180;11.400;2023-09-19T04:12:11;15.80;99.90
48007;DHT22;33771;48.180;11.400;2023-09-19T04:14:37;15.80;99.90
48007;DHT22;33771;48.180;11.400;2023-09-19T04:17:03;15.80;99.90
48007;DHT22;33771;48.180;11.400;2023-09-19T04:19:30;15.90;99.90
48007;DHT22;33771;48.180;11.400;2023-09-19T04:21:56;15.90;99.90
48007;DHT22;33771;48.180;11.400;2023-09-19T04:24:21;15.90;99.90
48007;DHT22;33771;48.180;11.400;2023-09-19T04:26:47;16.00;99.90
48007;DHT22;33771;48.180;11.400;2023-09-19T04:29:13;16.00;99.90
48007;DHT22;33771;48.180;11.400;2023-09-19T04:31:39;16.00;99.90
48007;DHT22;33771;48.180;11.400;2023-09-19T04:34:05;16.00;99.90
48007;DHT22;33771;48.180;11.400;2023-09-19T04:36:31;16.00;99.90
48007;DHT22;33771;48.180;11.400;2023-09-19T04:38:56;16.00;99.90
48007;DHT22;33771;48.180;11.400;2023-09-19T04:41:23;16.10;99.90
48007;DHT22;33771;48.180;11.400;2023-09-19T04:43:48;16.00;99.90
48007;DHT22;33771;48.180;11.400;2023-09-19T04:46:16;16.00;99.90
48007;DHT22;33771;48.180;11.400;2023-09-19T04:48:43;16.10;99.90
48007;DHT22;33771;48.180;11.400;2023-09-19T04:51:08;16.00;99.90
48007;DHT22;33771;48.180;11.400;2023-09-19T04:53:34;16.00;99.90
48007;DHT22;33771;48.180;11.400;2023-09-19T04:55:59;16.10;99.90
48007;DHT22;33771;48.180;11.400;2023-09-19T04:58:25;16.10;99.90
48007;DHT22;33771;48.180;11.400;2023-09-19T05:00:50;16.10;99.90
48007;DHT22;33771;48.180;11.400;2023-09-19T05:03:17;16.10;99.90
48007;DHT22;33771;48.180;11.400;2023-09-19T05:05:42;16.10;99.90
48007;DHT22;33771;48.180;11.400;2023-09-19T05:08:08;16.10;99.90
48007;DHT22;33771;48.180;11.400;2023-09-19T05:10:35;16.10;99.90
48007;DHT22;33771;48.180;11.400;2023-09-19T05:13:06;16.00;99.90
48007;DHT22;33771;48.180;11.400;2023-09-19T05:15:33;16.10;99.90
48007;DHT22;33771;48.180;11.400;2023-09-19T05:17:59;16.10;99.90
48007;DHT22;33771;48.180;11.400;2023-09-19T05:20:25;16.00;99.90
48007;DHT22;33771;48.180;11.400;2023-09-19T05:23:04;16.10;99.90
48007;DHT22;33771;48.180;11.400;2023-09-19T05:25:33;16.00;99.90
48007;DHT22;33771;48.180;11.400;2023-09-19T05:28:03;16.10;99.90
48007;DHT22;33771;48.180;11.400;2023-09-19T05:30:31;16.00;99.90
48007;DHT22;33771;48.180;11.400;2023-09-19T05:32:57;16.10;99.90
48007;DHT22;33771;48.180;11.400;2023-09-19T05:35:23;16.00;99.90
48007;DHT22;33771;48.180;11.400;2023-09-19T05:37:53;16.10;99.90
48007;DHT22;33771;48.180;11.400;2023-09-19T05:40:20;16.10;99.90
48007;DHT22;33771;48.180;11.400;2023-09-19T05:42:46;16.00;99.90
48007;DHT22;33771;48.180;11.400;2023-09-19T05:45:13;16.10;99.90
48007;DHT22;33771;48.180;11.400;2023-09-19T05:47:42;16.10;99.90
48007;DHT22;33771;48.180;11.400;2023-09-19T05:50:08;16.10;99.90
48007;DHT22;33771;48.180;11.400;2023-09-19T05:52:38;16.10;99.90
48007;DHT22;33771;48.180;11.400;2023-09-19T05:55:06;16.10;99.90
48007;DHT22;33771;48.180;11.400;2023-09-19T05:57:35;16.10;99.90
48007;DHT22;33771;48.180;11.400;2023-09-19T06:00:02;16.20;99.90
48007;DHT22;33771;48.180;11.400;2023-09-19T06:02:34;16.20;99.90
48007;DHT22;33771;48.180;11.400;2023-09-19T06:05:01;16.30;99.90
48007;DHT22;33771;48.180;11.400;2023-09-19T06:07:26;16.30;99.90
48007;DHT22;33771;48.180;11.400;2023-09-19T06:09:54;16.40;99.90
48007;DHT22;33771;48.180;11.400;2023-09-19T06:12:19;16.40;99.90
48007;DHT22;33771;48.180;11.400;2023-09-19T06:14:45;16.40;99.90
48007;DHT22;33771;48.180;11.400;2023-09-19T06:17:11;16.50;99.90
48007;DHT22;33771;48.180;11.400;2023-09-19T06:19:37;16.50;99.90
48007;DHT22;33771;48.180;11.400;2023-09-19T06:22:02;16.50;99.90
48007;DHT22;33771;48.180;11.400;2023-09-19T06:24:29;16.50;99.90
48007;DHT22;33771;48.180;11.400;2023-09-19T06:26:54;16.50;99.90
48007;DHT22;33771;48.180;11.400;2023-09-19T06:29:20;16.50;99.90
48007;DHT22;33771;48.180;11.400;2023-09-19T06:31:48;16.50;99.90
48007;DHT22;33771;48.180;11.400;2023-09-19T06:34:14;16.50;99.90
48007;DHT22;33771;48.180;11.400;2023-09-19T06:36:40;16.50;99.90
48007;DHT22;33771;48.180;11.400;2023-09-19T06:39:06;16.60;99.90
48007;DHT22;33771;48.180;11.400;2023-09-19T06:41:32;16.70;99.90
48007;DHT22;33771;48.180;11.400;2023-09-19T06:43:57;16.90;99.90
48007;DHT22;33771;48.180;11.400;2023-09-19T06:46:23;16.90;99.90
48007;DHT22;33771;48.180;11.400;2023-09-19T06:48:50;17.00;99.90
48007;DHT22;33771;48.180;11.400;2023-09-19T06:51:18;17.10;99.90
48007;DHT22;33771;48.180;11.400;2023-09-19T06:53:43;17.20;99.90
48007;DHT22;33771;48.180;11.400;2023-09-19T06:56:09;17.30;99.90
48007;DHT22;33771;48.180;11.400;2023-09-19T06:58:34;17.40;99.90
48007;DHT22;33771;48.180;11.400;2023-09-19T07:01:02;17.50;99.90
48007;DHT22;33771;48.180;11.400;2023-09-19T07:03:28;17.50;99.90
48007;DHT22;33771;48.180;11.400;2023-09-19T07:05:54;17.60;99.90
48007;DHT22;33771;48.180;11.400;2023-09-19T07:08:21;17.60;99.90
48007;DHT22;33771;48.180;11.400;2023-09-19T07:10:47;17.60;99.90
48007;DHT22;33771;48.180;11.400;2023-09-19T07:13:18;17.60;99.90
48007;DHT22;33771;48.180;11.400;2023-09-19T07:15:44;17.60;99.90
48007;DHT22;33771;48.180;11.400;2023-09-19T07:18:16;17.70;99.90
48007;DHT22;33771;48.180;11.400;2023-09-19T07:20:46;17.70;99.90
48007;DHT22;33771;48.180;11.400;2023-09-19T07:23:18;17.80;99.90
48007;DHT22;33771;48.180;11.400;2023-09-19T07:25:44;17.80;99.90
48007;DHT22;33771;48.180;11.400;2023-09-19T07:28:10;17.80;99.90
48007;DHT22;33771;48.180;11.400;2023-09-19T07:30:36;17.90;99.90
48007;DHT22;33771;48.180;11.400;2023-09-19T07:33:03;17.90;99.90
48007;DHT22;33771;48.180;11.400;2023-09-19T07:35:30;17.90;99.90
48007;DHT22;33771;48.180;11.400;2023-09-19T07:37:56;17.90;99.90
48007;DHT22;33771;48.180;11.400;2023-09-19T07:40:23;17.90;99.90
48007;DHT22;33771;48.180;11.400;2023-09-19T07:42:50;18.00;99.90
48007;DHT22;33771;48.180;11.400;2023-09-19T07:45:16;18.20;99.90
48007;DHT22;33771;48.180;11.400;2023-09-19T07:47:46;18.30;99.90
48007;DHT22;33771;48.180;11.400;2023-09-19T07:50:13;18.40;99.90
48007;DHT22;33771;48.180;11.400;2023-09-19T07:52:39;18.60;99.90
48007;DHT22;33771;48.180;11.400;2023-09-19T07:55:06;18.70;99.90
48007;DHT22;33771;48.180;11.400;2023-09-19T07:57:35;18.80;99.90
48007;DHT22;33771;48.180;11.400;2023-09-19T08:00:00;18.80;99.90
48007;DHT22;33771;48.180;11.400;2023-09-19T08:02:26;18.80;99.90
48007;DHT22;33771;48.180;11.400;2023-09-19T08:04:53;18.80;99.90
48007;DHT22;33771;48.180;11.400;2023-09-19T08:07:19;18.80;99.90
48007;DHT22;33771;48.180;11.400;2023-09-19T08:09:44;18.80;99.90
48007;DHT22;33771;48.180;11.400;2023-09-19T08:12:11;18.80;99.90
48007;DHT22;33771;48.180;11.400;2023-09-19T08:14:37;18.70;99.90
48007;DHT22;33771;48.180;11.400;2023-09-19T08:17:03;18.60;99.90
48007;DHT22;33771;48.180;11.400;2023-09-19T08:19:31;18.60;99.90
48007;DHT22;33771;48.180;11.400;2023-09-19T08:21:57;18.70;99.90
48007;DHT22;33771;48.180;11.400;2023-09-19T08:24:30;18.70;99.90
48007;DHT22;33771;48.180;11.400;2023-09-19T08:26:56;18.80;99.90
48007;DHT22;33771;48.180;11.400;2023-09-19T08:29:23;18.90;99.90
48007;DHT22;33771;48.180;11.400;2023-09-19T08:31:57;19.00;99.90
48007;DHT22;33771;48.180;11.400;2023-09-19T08:34:26;19.10;99.90
48007;DHT22;33771;48.180;11.400;2023-09-19T08:36:53;19.30;99.90
48007;DHT22;33771;48.180;11.400;2023-09-19T08:39:22;19.40;99.90
48007;DHT22;33771;48.180;11.400;2023-09-19T08:41:47;19.60;99.90
48007;DHT22;33771;48.180;11.400;2023-09-19T08:44:13;19.80;99.90
48007;DHT22;33771;48.180;11.400;2023-09-19T08:46:41;19.90;99.90
48007;DHT22;33771;48.180;11.400;2023-09-19T08:52:15;20.00;99.90
48007;DHT22;33771;48.180;11.400;2023-09-19T08:54:45;20.10;99.90
48007;DHT22;33771;48.180;11.400;2023-09-19T08:57:13;20.00;99.90
48007;DHT22;33771;48.180;11.400;2023-09-19T08:59:48;20.10;99.90
48007;DHT22;33771;48.180;11.400;2023-09-19T09:02:14;20.10;99.90
48007;DHT22;33771;48.180;11.400;2023-09-19T09:04:41;20.20;99.90
48007;DHT22;33771;48.180;11.400;2023-09-19T09:07:13;20.20;99.90
48007;DHT22;33771;48.180;11.400;2023-09-19T09:09:40;20.40;99.90
48007;DHT22;33771;48.180;11.400;2023-09-19T09:12:13;20.40;99.90
48007;DHT22;33771;48.180;11.400;2023-09-19T09:14:46;20.40;99.90
48007;DHT22;33771;48.180;11.400;2023-09-19T09:17:15;20.20;99.90
48007;DHT22;33771;48.180;11.400;2023-09-19T09:19:46;20.00;99.90
48007;DHT22;33771;48.180;11.400;2023-09-19T09:22:12;19.90;99.90
48007;DHT22;33771;48.180;11.400;2023-09-19T09:24:53;20.00;99.90
48007;DHT22;33771;48.180;11.400;2023-09-19T09:27:20;20.10;99.90
48007;DHT22;33771;48.180;11.400;2023-09-19T09:29:47;20.20;99.90
48007;DHT22;33771;48.180;11.400;2023-09-19T09:34:54;20.60;99.90
48007;DHT22;33771;48.180;11.400;2023-09-19T09:37:22;21.00;99.90
48007;DHT22;33771;48.180;11.400;2023-09-19T09:39:56;21.40;99.90
48007;DHT22;33771;48.180;11.400;2023-09-19T09:42:30;21.60;99.90
48007;DHT22;33771;48.180;11.400;2023-09-19T09:45:21;21.70;99.90
48007;DHT22;33771;48.180;11.400;2023-09-19T09:48:15;21.70;99.90
48007;DHT22;33771;48.180;11.400;2023-09-19T09:50:56;21.70;99.90
48007;DHT22;33771;48.180;11.400;2023-09-19T09:53:26;21.60;99.90
48007;DHT22;33771;48.180;11.400;2023-09-19T09:56:05;21.70;99.90
48007;DHT22;33771;48.180;11.400;2023-09-19T09:58:53;21.90;99.90
48007;DHT22;33771;48.180;11.400;2023-09-19T10:01:21;22.00;99.90
48007;DHT22;33771;48.180;11.400;2023-09-19T10:03:46;22.00;99.90
48007;DHT22;33771;48.180;11.400;2023-09-19T10:06:17;22.10;99.90
48007;DHT22;33771;48.180;11.400;2023-09-19T10:09:02;21.90;99.90
48007;DHT22;33771;48.180;11.400;2023-09-19T10:11:47;21.80;99.90
48007;DHT22;33771;48.180;11.400;2023-09-19T10:14:20;21.80;99.90
48007;DHT22;33771;48.180;11.400;2023-09-19T10:16:49;22.00;99.90
48007;DHT22;33771;48.180;11.400;2023-09-19T10:19:24;22.10;99.90
48007;DHT22;33771;48.180;11.400;2023-09-19T10:21:56;22.20;99.90
48007;DHT22;33771;48.180;11.400;2023-09-19T10:24:22;22.40;99.90
48007;DHT22;33771;48.180;11.400;2023-09-19T10:26:50;22.50;99.90
48007;DHT22;33771;48.180;11.400;2023-09-19T10:29:17;22.50;99.90
48007;DHT22;33771;48.180;11.400;2023-09-19T10:31:44;22.30;99.90
48007;DHT22;33771;48.180;11.400;2023-09-19T10:34:17;22.10;99.90
48007;DHT22;33771;48.180;11.400;2023-09-19T10:36:46;21.90;99.90
48007;DHT22;33771;48.180;11.400;2023-09-19T10:39:15;21.90;99.90
48007;DHT22;33771;48.180;11.400;2023-09-19T10:41:50;22.00;99.90
48007;DHT22;33771;48.180;11.400;2023-09-19T10:44:28;22.30;99.90
48007;DHT22;33771;48.180;11.400;2023-09-19T10:46:57;22.30;99.90
48007;DHT22;33771;48.180;11.400;2023-09-19T10:49:23;22.20;99.90
48007;DHT22;33771;48.180;11.400;2023-09-19T10:51:53;22.10;99.90
48007;DHT22;33771;48.180;11.400;2023-09-19T10:54:25;22.10;99.90
48007;DHT22;33771;48.180;11.400;2023-09-19T10:56:53;22.30;99.90
48007;DHT22;33771;48.180;11.400;2023-09-19T10:59:20;22.60;99.90
48007;DHT22;33771;48.180;11.400;2023-09-19T11:01:51;22.90;99.90
48007;DHT22;33771;48.180;11.400;2023-09-19T11:04:28;23.10;99.90
48007;DHT22;33771;48.180;11.400;2023-09-19T11:09:50;23.00;99.90
48007;DHT22;33771;48.180;11.400;2023-09-19T11:15:02;22.70;99.90
48007;DHT22;33771;48.180;11.400;2023-09-19T11:17:35;22.60;99.90
48007;DHT22;33771;48.180;11.400;2023-09-19T11:30:32;23.10;99.90
48007;DHT22;33771;48.180;11.400;2023-09-19T11:33:27;23.40;99.90
48007;DHT22;33771;48.180;11.400;2023-09-19T11:36:09;23.60;99.90
48007;DHT22;33771;48.180;11.400;2023-09-19T11:39:01;23.30;99.90
48007;DHT22;33771;48.180;11.400;2023-09-19T11:41:37;23.00;99.90
48007;DHT22;33771;48.180;11.400;2023-09-19T11:46:52;22.60;99.90
48007;DHT22;33771;48.180;11.400;2023-09-19T11:49:19;22.30;99.90
48007;DHT22;33771;48.180;11.400;2023-09-19T11:51:51;22.10;99.90
48007;DHT22;33771;48.180;11.400;2023-09-19T11:54:17;21.90;99.90
48007;DHT22;33771;48.180;11.400;2023-09-19T11:56:54;21.80;99.90
48007;DHT22;33771;48.180;11.400;2023-09-19T11:59:23;21.70;99.90
48007;DHT22;33771;48.180;11.400;2023-09-19T12:01:54;21.60;99.90
48007;DHT22;33771;48.180;11.400;2023-09-19T12:04:39;21.70;99.90
48007;DHT22;33771;48.180;11.400;2023-09-19T12:07:16;22.00;99.90
48007;DHT22;33771;48.180;11.400;2023-09-19T12:09:49;22.30;99.90
48007;DHT22;33771;48.180;11.400;2023-09-19T12:12:26;22.40;99.90
48007;DHT22;33771;48.180;11.400;2023-09-19T12:15:01;22.60;99.90
48007;DHT22;33771;48.180;11.400;2023-09-19T12:17:39;22.70;99.90
48007;DHT22;33771;48.180;11.400;2023-09-19T12:20:07;23.10;99.90
48007;DHT22;33771;48.180;11.400;2023-09-19T12:22:43;23.40;99.90
48007;DHT22;33771;48.180;11.400;2023-09-19T12:25:09;23.50;99.90
48007;DHT22;33771;48.180;11.400;2023-09-19T12:27:49;23.40;99.90
48007;DHT22;33771;48.180;11.400;2023-09-19T12:30:18;23.20;99.90
48007;DHT22;33771;48.180;11.400;2023-09-19T12:32:46;23.00;99.90
48007;DHT22;33771;48.180;11.400;2023-09-19T12:35:27;22.80;99.90
48007;DHT22;33771;48.180;11.400;2023-09-19T12:37:54;22.60;99.90
48007;DHT22;33771;48.180;11.400;2023-09-19T12:40:21;22.30;99.90
48007;DHT22;33771;48.180;11.400;2023-09-19T12:42:48;22.00;99.90
48007;DHT22;33771;48.180;11.400;2023-09-19T12:45:15;21.70;99.90
48007;DHT22;33771;48.180;11.400;2023-09-19T12:51:08;21.20;99.90
48007;DHT22;33771;48.180;11.400;2023-09-19T12:53:43;21.00;99.90
48007;DHT22;33771;48.180;11.400;2023-09-19T12:56:13;21.00;99.90
48007;DHT22;33771;48.180;11.400;2023-09-19T12:58:50;21.10;99.90
48007;DHT22;33771;48.180;11.400;2023-09-19T13:01:16;21.20;99.90
48007;DHT22;33771;48.180;11.400;2023-09-19T13:03:42;21.30;99.90
48007;DHT22;33771;48.180;11.400;2023-09-19T13:06:08;21.50;99.90
48007;DHT22;33771;48.180;11.400;2023-09-19T13:08:37;21.70;99.90
48007;DHT22;33771;48.180;11.400;2023-09-19T13:11:12;21.80;99.90
48007;DHT22;33771;48.180;11.400;2023-09-19T13:13:49;22.10;99.90
48007;DHT22;33771;48.180;11.400;2023-09-19T13:16:19;22.50;99.90
48007;DHT22;33771;48.180;11.400;2023-09-19T13:18:57;22.70;99.90
48007;DHT22;33771;48.180;11.400;2023-09-19T13:21:31;22.90;99.90
48007;DHT22;33771;48.180;11.400;2023-09-19T13:24:24;23.00;99.90
48007;DHT22;33771;48.180;11.400;2023-09-19T13:26:53;23.00;99.90
48007;DHT22;33771;48.180;11.400;2023-09-19T13:29:19;23.00;99.90
48007;DHT22;33771;48.180;11.400;2023-09-19T13:31:51;23.10;99.90
48007;DHT22;33771;48.180;11.400;2023-09-19T13:34:19;22.90;99.90
48007;DHT22;33771;48.180;11.400;2023-09-19T13:36:45;22.60;99.90
48007;DHT22;33771;48.180;11.400;2023-09-19T13:39:16;22.40;99.90
48007;DHT22;33771;48.180;11.400;2023-09-19T13:41:47;22.10;99.90
48007;DHT22;33771;48.180;11.400;2023-09-19T13:44:13;21.90;99.90
48007;DHT22;33771;48.180;11.400;2023-09-19T13:46:39;21.80;99.90
48007;DHT22;33771;48.180;11.400;2023-09-19T13:49:06;21.70;99.90
48007;DHT22;33771;48.180;11.400;2023-09-19T13:51:31;21.60;99.90
48007;DHT22;33771;48.180;11.400;2023-09-19T13:53:57;21.50;99.90
48007;DHT22;33771;48.180;11.400;2023-09-19T13:56:25;21.40;99.90
48007;DHT22;33771;48.180;11.400;2023-09-19T13:58:53;21.30;99.90
48007;DHT22;33771;48.180;11.400;2023-09-19T14:01:20;21.30;99.90
48007;DHT22;33771;48.180;11.400;2023-09-19T14:03:45;21.30;99.90
48007;DHT22;33771;48.180;11.400;2023-09-19T14:06:16;21.40;99.90
48007;DHT22;33771;48.180;11.400;2023-09-19T14:08:43;21.30;99.90
48007;DHT22;33771;48.180;11.400;2023-09-19T14:11:09;21.40;99.90
48007;DHT22;33771;48.180;11.400;2023-09-19T14:13:35;21.50;99.90
48007;DHT22;33771;48.180;11.400;2023-09-19T14:16:07;21.70;99.90
48007;DHT22;33771;48.180;11.400;2023-09-19T14:18:34;21.90;99.90
48007;DHT22;33771;48.180;11.400;2023-09-19T14:21:06;22.20;99.90
48007;DHT22;33771;48.180;11.400;2023-09-19T14:23:39;22.30;99.90
48007;DHT22;33771;48.180;11.400;2023-09-19T14:26:05;22.50;99.90
48007;DHT22;33771;48.180;11.400;2023-09-19T14:28:31;22.50;99.90
48007;DHT22;33771;48.180;11.400;2023-09-19T14:31:04;22.50;99.90
48007;DHT22;33771;48.180;11.400;2023-09-19T14:33:30;22.50;99.90
48007;DHT22;33771;48.180;11.400;2023-09-19T14:35:56;22.60;99.90
48007;DHT22;33771;48.180;11.400;2023-09-19T14:38:22;22.70;99.90
48007;DHT22;33771;48.180;11.400;2023-09-19T14:40:47;22.70;99.90
48007;DHT22;33771;48.180;11.400;2023-09-19T14:43:15;22.70;99.90
48007;DHT22;33771;48.180;11.400;2023-09-19T14:45:41;22.50;99.90
48007;DHT22;33771;48.180;11.400;2023-09-19T14:48:06;22.40;99.90
48007;DHT22;33771;48.180;11.400;2023-09-19T14:50:32;22.20;99.90
48007;DHT22;33771;48.180;11.400;2023-09-19T14:52:58;22.20;99.90
48007;DHT22;33771;48.180;11.400;2023-09-19T14:55:27;22.10;99.90
48007;DHT22;33771;48.180;11.400;2023-09-19T14:57:54;22.10;99.90
48007;DHT22;33771;48.180;11.400;2023-09-19T15:00:22;22.00;99.90
48007;DHT22;33771;48.180;11.400;2023-09-19T15:02:49;22.00;99.90
48007;DHT22;33771;48.180;11.400;2023-09-19T15:05:16;21.90;99.90
48007;DHT22;33771;48.180;11.400;2023-09-19T15:07:41;21.70;99.90
48007;DHT22;33771;48.180;11.400;2023-09-19T15:10:07;21.70;99.90
48007;DHT22;33771;48.180;11.400;2023-09-19T15:12:36;21.70;99.90
48007;DHT22;33771;48.180;11.400;2023-09-19T15:15:04;21.70;99.90
48007;DHT22;33771;48.180;11.400;2023-09-19T15:17:31;21.70;99.90
48007;DHT22;33771;48.180;11.400;2023-09-19T15:19:56;21.80;99.90
48007;DHT22;33771;48.180;11.400;2023-09-19T15:22:22;21.80;99.90
48007;DHT22;33771;48.180;11.400;2023-09-19T15:24:48;21.80;99.90
48007;DHT22;33771;48.180;11.400;2023-09-19T15:27:13;21.80;99.90
48007;DHT22;33771;48.180;11.400;2023-09-19T15:29:38;21.80;99.90
48007;DHT22;33771;48.180;11.400;2023-09-19T15:32:04;21.70;99.90
48007;DHT22;33771;48.180;11.400;2023-09-19T15:34:30;21.70;99.90
48007;DHT22;33771;48.180;11.400;2023-09-19T15:36:56;21.70;99.90
48007;DHT22;33771;48.180;11.400;2023-09-19T15:39:21;21.60;99.90
48007;DHT22;33771;48.180;11.400;2023-09-19T15:41:48;21.60;99.90
48007;DHT22;33771;48.180;11.400;2023-09-19T15:44:18;21.50;99.90
48007;DHT22;33771;48.180;11.400;2023-09-19T15:46:44;21.50;99.90
48007;DHT22;33771;48.180;11.400;2023-09-19T15:49:10;21.40;99.90
48007;DHT22;33771;48.180;11.400;2023-09-19T15:51:36;21.40;99.90
48007;DHT22;33771;48.180;11.400;2023-09-19T15:54:07;21.30;99.90
48007;DHT22;33771;48.180;11.400;2023-09-19T15:56:33;21.30;99.90
48007;DHT22;33771;48.180;11.400;2023-09-19T15:59:00;21.20;99.90
48007;DHT22;33771;48.180;11.400;2023-09-19T16:01:26;21.20;99.90
48007;DHT22;33771;48.180;11.400;2023-09-19T16:03:52;21.10;99.90